Time;durP1;ratioP1;P1;durP2;ratioP2;P2;SDS_P1;SDS_P2;PMS_P1;PMS_P2;Temp;Humidity;BMP_temperature;BMP_pressure;BME280_temperature;BME280_humidity;BME280_pressure;Samples;Min_cycle;Max_cycle;Signal;HPM_P1;HPM_P2
2022/09/06 00:00:17;;;;;;;7.37;4.53;;;;;;;6.83;100.00;100449.73;1708596;82;21481;-47
2022/09/06 00:02:43;;;;;;;6.77;4.87;;;;;;;6.82;100.00;100446.63;1710569;82;21063;-48
2022/09/06 00:05:10;;;;;;;7.20;4.47;;;;;;;6.74;100.00;100450.39;1673260;83;21081;-47
2022/09/06 00:07:36;;;;;;;7.13;4.67;;;;;;;6.66;100.00;100455.02;1703473;82;21811;-47
2022/09/06 00:10:04;;;;;;;8.83;4.53;;;;;;;6.54;100.00;100449.50;1705197;82;21563;-47
2022/09/06 00:12:32;;;;;;;7.67;5.20;;;;;;;6.45;100.00;100445.22;1703351;82;21081;-47
2022/09/06 00:14:58;;;;;;;6.00;4.23;;;;;;;6.38;100.00;100447.56;1709451;82;21158;-47
2022/09/06 00:17:26;;;;;;;7.57;4.87;;;;;;;6.34;100.00;100447.67;1704321;82;21222;-47
2022/09/06 00:19:52;;;;;;;7.93;4.60;;;;;;;6.36;100.00;100444.06;1707074;82;22252;-47
2022/09/06 00:22:19;;;;;;;7.93;4.57;;;;;;;6.41;100.00;100443.95;1706580;82;21259;-47
2022/09/06 00:24:45;;;;;;;7.03;5.33;;;;;;;6.44;100.00;100448.80;1704708;82;21082;-47
2022/09/06 00:27:12;;;;;;;6.53;4.73;;;;;;;6.46;100.00;100446.10;1706930;82;21121;-47
2022/09/06 00:29:38;;;;;;;8.87;5.03;;;;;;;6.47;100.00;100443.82;1703965;82;21062;-47
2022/09/06 00:32:04;;;;;;;10.67;5.40;;;;;;;6.49;100.00;100442.00;1708421;82;21829;-47
2022/09/06 00:34:31;;;;;;;12.60;5.40;;;;;;;6.51;100.00;100444.20;1708650;82;21117;-47
2022/09/06 00:36:57;;;;;;;7.70;5.30;;;;;;;6.51;100.00;100444.20;1709891;82;21718;-47
2022/09/06 00:39:24;;;;;;;6.97;4.30;;;;;;;6.51;100.00;100441.98;1710557;82;21092;-47
2022/09/06 00:41:50;;;;;;;6.10;4.43;;;;;;;6.46;100.00;100442.09;1708522;82;21584;-47
2022/09/06 00:44:16;;;;;;;6.87;4.40;;;;;;;6.40;100.00;100440.40;1705298;82;21168;-47
2022/09/06 00:46:45;;;;;;;7.80;3.57;;;;;;;6.31;100.00;100443.25;1707338;82;21117;-48
2022/09/06 00:49:23;;;;;;;7.47;3.63;;;;;;;6.24;100.00;100447.42;1685499;82;21101;-46
2022/09/06 00:51:53;;;;;;;4.47;3.03;;;;;;;6.18;100.00;100448.89;1705379;82;21597;-47
2022/09/06 00:54:20;;;;;;;13.87;3.53;;;;;;;6.14;100.00;100449.39;1707751;82;21034;-47
2022/09/06 00:56:46;;;;;;;6.73;3.77;;;;;;;6.15;100.00;100448.94;1707826;82;21126;-47
2022/09/06 00:59:13;;;;;;;5.10;2.60;;;;;;;6.16;100.00;100446.69;1708810;82;21382;-47
2022/09/06 01:01:40;;;;;;;9.73;4.33;;;;;;;6.16;100.00;100446.69;1707451;82;21104;-47
2022/09/06 01:04:06;;;;;;;5.73;3.33;;;;;;;6.14;100.00;100449.84;1707795;82;21113;-47
2022/09/06 01:07:02;;;;;;;5.57;3.23;;;;;;;6.14;100.00;100447.17;1703897;82;21101;-47
2022/09/06 01:09:49;;;;;;;5.40;3.30;;;;;;;6.08;100.00;100449.06;1712031;82;21818;-47
2022/09/06 01:12:47;;;;;;;7.10;4.20;;;;;;;6.00;100.00;100456.34;1704956;82;21095;-47
2022/09/06 01:16:04;;;;;;;5.60;3.00;;;;;;;5.94;100.00;100451.13;1709154;82;21106;-47
2022/09/06 01:18:48;;;;;;;4.70;3.30;;;;;;;5.92;100.00;100457.39;1704996;82;21055;-46
2022/09/06 01:21:47;;;;;;;6.77;3.47;;;;;;;5.84;100.00;100451.27;1702653;82;21512;-46
2022/09/06 01:24:51;;;;;;;5.53;2.70;;;;;;;5.76;100.00;100454.09;1681988;83;21213;-46
2022/09/06 01:27:43;;;;;;;5.37;2.70;;;;;;;5.69;100.00;100456.44;1708516;82;21089;-47
2022/09/06 01:30:11;;;;;;;4.73;2.03;;;;;;;5.64;100.00;100463.63;1705902;82;21125;-46
2022/09/06 01:33:12;;;;;;;4.10;2.53;;;;;;;5.64;100.00;100459.62;1704830;82;21102;-45
2022/09/06 01:35:50;;;;;;;7.20;2.10;;;;;;;5.67;100.00;100454.24;1707381;82;21051;-45
2022/09/06 01:38:16;;;;;;;6.70;3.07;;;;;;;5.70;100.00;100457.72;1702285;82;21339;-45
2022/09/06 01:40:42;;;;;;;7.73;4.13;;;;;;;5.74;100.00;100453.22;1704160;82;21552;-45
2022/09/06 01:43:11;;;;;;;4.50;3.40;;;;;;;5.77;100.00;100453.63;1708444;82;21098;-45
2022/09/06 01:46:07;;;;;;;5.10;2.97;;;;;;;5.76;100.00;100460.77;1709550;82;21046;-45
2022/09/06 01:49:06;;;;;;;5.03;3.25;;;;;;;5.76;100.00;100458.55;1711019;82;21426;-46
2022/09/06 01:51:50;;;;;;;8.37;2.70;;;;;;;5.73;100.00;100463.47;1706295;82;21806;-45
2022/09/06 01:54:39;;;;;;;7.12;3.17;;;;;;;5.63;100.00;100463.20;1704228;82;21046;-45
2022/09/06 01:57:30;;;;;;;6.13;3.17;;;;;;;5.48;100.00;100472.80;1706838;82;21126;-44
2022/09/06 02:00:08;;;;;;;4.73;3.20;;;;;;;5.33;100.00;100469.48;1707391;82;21101;-43
2022/09/06 02:03:07;;;;;;;5.12;2.15;;;;;;;5.24;100.00;100472.74;1708058;82;20990;-44
2022/09/06 02:05:46;;;;;;;3.00;1.83;;;;;;;5.19;100.00;100472.80;1707209;82;21424;-44
2022/09/06 02:08:26;;;;;;;4.23;2.40;;;;;;;5.16;100.00;100481.31;1704490;82;21055;-43
2022/09/06 02:11:01;;;;;;;2.20;1.80;;;;;;;5.17;100.00;100479.97;1711006;82;21390;-45
2022/09/06 02:14:00;;;;;;;3.50;1.97;;;;;;;5.22;100.00;100479.44;1706483;82;21004;-44
2022/09/06 02:16:26;;;;;;;4.03;2.17;;;;;;;5.28;100.00;100486.00;1690451;82;20921;-43
2022/09/06 02:19:23;;;;;;;4.93;1.80;;;;;;;5.33;100.00;100488.17;1711323;82;22526;-43
2022/09/06 02:21:49;;;;;;;3.17;1.83;;;;;;;5.36;100.00;100487.22;1707146;82;21457;-44
2022/09/06 02:24:20;;;;;;;4.03;2.00;;;;;;;5.41;100.00;100486.71;1716509;81;20980;-44
2022/09/06 02:26:46;;;;;;;3.77;2.13;;;;;;;5.43;100.00;100478.69;1717235;81;21648;-44
2022/09/06 02:29:14;;;;;;;3.17;1.77;;;;;;;5.44;100.00;100482.67;1690033;81;21422;-45
2022/09/06 02:31:55;;;;;;;3.20;1.90;;;;;;;5.45;100.00;100485.73;1717334;81;21352;-44
2022/09/06 02:34:22;;;;;;;6.77;1.67;;;;;;;5.45;100.00;100485.73;1715518;81;20927;-43
2022/09/06 02:36:48;;;;;;;2.67;1.63;;;;;;;5.42;100.00;100475.58;1715089;81;21004;-44
2022/09/06 02:39:14;;;;;;;2.10;1.63;;;;;;;5.39;100.00;100478.29;1711124;81;21789;-44
2022/09/06 02:41:41;;;;;;;5.13;1.07;;;;;;;5.32;100.00;100487.73;1665812;82;20996;-43
2022/09/06 02:44:08;;;;;;;3.50;1.30;;;;;;;5.24;100.00;100486.97;1711557;81;21487;-44
2022/09/06 02:46:34;;;;;;;3.67;1.20;;;;;;;5.21;100.00;100492.34;1713606;81;21079;-43
2022/09/06 02:49:00;;;;;;;2.73;1.40;;;;;;;5.19;100.00;100495.48;1713093;81;21683;-43
2022/09/06 02:51:27;;;;;;;1.70;1.07;;;;;;;5.16;100.00;100490.20;1707884;81;21081;-43
2022/09/06 02:53:54;;;;;;;1.80;1.20;;;;;;;5.16;100.00;100490.20;1712922;81;21080;-43
2022/09/06 02:56:21;;;;;;;3.10;1.40;;;;;;;5.20;100.00;100498.59;1711104;81;21252;-44
2022/09/06 02:58:48;;;;;;;3.40;1.50;;;;;;;5.22;100.00;100494.56;1709649;81;21133;-44
2022/09/06 03:01:15;;;;;;;3.90;1.30;;;;;;;5.22;100.00;100491.45;1709997;81;21053;-43
2022/09/06 03:03:41;;;;;;;5.20;1.60;;;;;;;5.21;100.00;100492.34;1713313;81;21047;-43
2022/09/06 03:06:08;;;;;;;4.87;1.40;;;;;;;5.19;100.00;100482.62;1714051;81;21433;-44
2022/09/06 03:08:35;;;;;;;2.97;1.33;;;;;;;5.18;100.00;100488.86;1713065;81;21236;-43
2022/09/06 03:11:01;;;;;;;1.73;1.00;;;;;;;5.17;100.00;100491.09;1714217;81;21046;-44
2022/09/06 03:13:28;;;;;;;2.03;1.10;;;;;;;5.17;100.00;100495.09;1711930;81;21245;-44
2022/09/06 03:15:57;;;;;;;1.30;0.90;;;;;;;5.15;100.00;100489.78;1712390;81;21087;-43
2022/09/06 03:18:26;;;;;;;2.33;1.00;;;;;;;5.15;100.00;100492.45;1714642;81;21099;-44
2022/09/06 03:20:53;;;;;;;1.63;0.83;;;;;;;5.15;100.00;100493.78;1715790;81;21214;-43
2022/09/06 03:23:22;;;;;;;1.37;0.97;;;;;;;5.13;100.00;100496.03;1706361;81;21185;-44
2022/09/06 03:25:49;;;;;;;1.30;0.90;;;;;;;5.09;100.00;100506.33;1704294;82;21024;-44
2022/09/06 03:28:17;;;;;;;2.43;1.30;;;;;;;5.06;100.00;100504.58;1706923;82;21096;-43
2022/09/06 03:30:45;;;;;;;3.03;1.20;;;;;;;5.04;100.00;100512.17;1709053;82;21141;-43
2022/09/06 03:33:12;;;;;;;1.33;1.00;;;;;;;5.04;100.00;100509.05;1704194;82;21800;-44
2022/09/06 03:35:38;;;;;;;4.90;1.50;;;;;;;5.04;100.00;100509.05;1703782;82;21052;-44
2022/09/06 03:38:05;;;;;;;1.37;1.10;;;;;;;5.04;100.00;100515.72;1707424;82;21054;-44
2022/09/06 03:40:31;;;;;;;1.67;1.20;;;;;;;5.01;100.00;100514.90;1707424;82;21060;-43
2022/09/06 03:42:58;;;;;;;1.67;1.17;;;;;;;4.99;100.00;100520.70;1705523;82;21091;-44
2022/09/06 03:45:24;;;;;;;2.57;0.90;;;;;;;4.96;100.00;100514.94;1712286;82;21145;-44
2022/09/06 03:47:51;;;;;;;1.80;0.90;;;;;;;4.96;100.00;100516.27;1708402;82;21094;-43
2022/09/06 03:50:17;;;;;;;3.10;0.90;;;;;;;5.00;100.00;100522.47;1706050;82;21489;-43
2022/09/06 03:52:43;;;;;;;1.87;1.27;;;;;;;5.01;100.00;100521.13;1704236;82;21064;-43
2022/09/06 03:55:10;;;;;;;1.83;1.10;;;;;;;5.05;100.00;100525.50;1708769;82;22428;-44
2022/09/06 03:57:37;;;;;;;1.60;0.90;;;;;;;5.08;100.00;100521.46;1704812;82;21159;-44
2022/09/06 04:00:05;;;;;;;2.50;1.20;;;;;;;5.13;100.00;100522.27;1707408;82;21067;-43
2022/09/06 04:02:33;;;;;;;1.70;1.00;;;;;;;5.18;100.00;100527.11;1701738;82;21597;-44
2022/09/06 04:05:00;;;;;;;2.37;1.00;;;;;;;5.23;100.00;100527.03;1708144;82;21078;-44
2022/09/06 04:07:27;;;;;;;1.67;1.00;;;;;;;5.27;100.00;100532.28;1705724;82;21512;-45
2022/09/06 04:09:53;;;;;;;9.67;1.50;;;;;;;5.32;100.00;100530.45;1704466;82;21233;-44
2022/09/06 04:12:19;;;;;;;2.87;1.20;;;;;;;5.38;100.00;100539.26;1704780;82;21681;-44
2022/09/06 04:14:47;;;;;;;1.80;1.03;;;;;;;5.44;100.00;100536.08;1703458;82;21054;-43
2022/09/06 04:17:13;;;;;;;6.73;1.73;;;;;;;5.53;100.00;100535.05;1708209;82;21554;-44
2022/09/06 04:19:39;;;;;;;6.70;1.07;;;;;;;5.66;100.00;100533.48;1668799;83;21252;-45
2022/09/06 04:22:06;;;;;;;4.13;1.30;;;;;;;5.84;100.00;100535.44;1701789;82;21103;-44
2022/09/06 04:24:33;;;;;;;1.50;0.90;;;;;;;5.98;100.00;100534.31;1709575;81;21478;-44
2022/09/06 04:26:59;;;;;;;2.27;1.20;;;;;;;6.12;100.00;100538.11;1713996;81;21041;-44
2022/09/06 04:29:26;;;;;;;3.77;1.43;;;;;;;6.25;100.00;100536.08;1712646;81;21120;-44
2022/09/06 04:31:52;;;;;;;4.60;1.40;;;;;;;6.37;100.00;100537.20;1713222;81;21466;-45
2022/09/06 04:34:19;;;;;;;12.20;2.83;;;;;;;6.48;100.00;100534.30;1710768;81;22117;-44
2022/09/06 04:36:45;;;;;;;6.77;2.13;;;;;;;6.61;100.00;100536.73;1711974;81;21093;-43
2022/09/06 04:39:12;;;;;;;6.60;2.47;;;;;;;6.78;100.00;100533.25;1708758;81;21156;-45
2022/09/06 04:41:39;;;;;;;9.03;4.43;;;;;;;7.05;100.00;100530.46;1711119;81;21399;-44
2022/09/06 04:44:05;;;;;;;5.00;2.70;;;;;;;7.40;100.00;100531.48;1706872;82;21089;-45
2022/09/06 04:46:33;;;;;;;9.47;3.00;;;;;;;7.73;100.00;100531.14;1710926;81;21160;-45
2022/09/06 04:49:00;;;;;;;11.87;3.43;;;;;;;7.99;100.00;100532.71;1708268;81;21001;-45
2022/09/06 04:51:26;;;;;;;9.10;3.67;;;;;;;8.16;100.00;100530.48;1708552;81;21120;-45
2022/09/06 04:53:53;;;;;;;8.60;3.67;;;;;;;8.30;100.00;100526.96;1711116;81;21573;-44
2022/09/06 04:56:21;;;;;;;8.00;3.60;;;;;;;8.41;100.00;100523.15;1708829;81;21128;-45
2022/09/06 04:58:49;;;;;;;9.13;5.30;;;;;;;8.50;100.00;100525.58;1706031;81;21856;-45
2022/09/06 05:01:15;;;;;;;15.50;6.07;;;;;;;8.58;100.00;100527.59;1712050;81;21321;-44
2022/09/06 05:03:41;;;;;;;12.80;5.95;;;;;;;8.66;100.00;100534.97;1708674;81;21045;-45
2022/09/06 05:06:19;;;;;;;15.40;6.47;;;;;;;8.71;100.00;100534.36;1710926;81;21521;-44
2022/09/06 05:08:46;;;;;;;12.20;5.73;;;;;;;8.76;100.00;100532.45;1713276;81;21384;-44
2022/09/06 05:11:12;;;;;;;14.10;6.37;;;;;;;8.81;100.00;100528.27;1720164;81;21100;-45
2022/09/06 05:13:39;;;;;;;14.93;6.83;;;;;;;8.83;100.00;100533.14;1715054;81;20982;-45
2022/09/06 05:16:06;;;;;;;13.73;6.47;;;;;;;8.87;100.00;100534.80;1711586;81;21121;-44
2022/09/06 05:18:33;;;;;;;12.25;5.30;;;;;;;8.88;100.00;100537.45;1710631;81;21435;-45
2022/09/06 05:21:00;;;;;;;11.53;4.92;;;;;;;8.89;100.00;100537.87;1712258;81;21118;-45
2022/09/06 05:23:27;;;;;;;11.03;5.87;;;;;;;8.93;100.00;100533.30;1712344;82;23065;-44
2022/09/06 05:25:53;;;;;;;11.22;5.30;;;;;;;8.97;100.00;100535.84;1713052;81;20958;-44
2022/09/06 05:28:19;;;;;;;11.95;5.60;;;;;;;9.08;100.00;100535.53;1711043;82;21265;-44
2022/09/06 05:30:46;;;;;;;9.63;5.22;;;;;;;9.20;100.00;100529.77;1712226;81;20950;-44
2022/09/06 05:33:15;;;;;;;12.35;5.85;;;;;;;9.32;100.00;100531.22;1713159;81;21376;-45
2022/09/06 05:35:42;;;;;;;12.93;6.87;;;;;;;9.41;100.00;100518.84;1713769;81;22172;-45
2022/09/06 05:38:08;;;;;;;12.60;4.78;;;;;;;9.53;100.00;100520.27;1717744;81;20906;-43
2022/09/06 05:40:35;;;;;;;8.35;4.70;;;;;;;9.60;100.00;100510.62;1708743;81;21108;-45
2022/09/06 05:43:03;;;;;;;14.78;4.50;;;;;;;9.67;100.00;100514.86;1714035;81;21524;-46
2022/09/06 05:45:29;;;;;;;7.12;3.67;;;;;;;9.72;100.00;100516.92;1710527;81;21072;-45
2022/09/06 05:47:56;;;;;;;6.80;4.30;;;;;;;9.75;100.00;100513.27;1714602;81;21721;-45
2022/09/06 05:50:22;;;;;;;7.42;3.95;;;;;;;9.78;100.00;100515.37;1717391;81;21031;-45
2022/09/06 05:52:49;;;;;;;10.55;4.20;;;;;;;9.82;100.00;100520.20;1712943;81;21142;-45
2022/09/06 05:55:15;;;;;;;7.72;3.50;;;;;;;9.83;100.00;100521.95;1713903;81;21090;-46
2022/09/06 05:57:42;;;;;;;7.60;4.08;;;;;;;9.82;100.00;100525.11;1716981;81;21044;-46
2022/09/06 06:00:11;;;;;;;15.28;3.05;;;;;;;9.83;100.00;100530.91;1710537;81;22636;-45
2022/09/06 06:02:40;;;;;;;7.12;3.10;;;;;;;9.82;100.00;100521.54;1708973;81;21410;-46
2022/09/06 06:05:08;;;;;;;7.58;2.60;;;;;;;9.83;100.00;100528.22;1714258;81;21103;-45
2022/09/06 06:07:36;;;;;;;9.90;3.15;;;;;;;9.85;100.00;100522.80;1712946;81;21048;-45
2022/09/06 06:10:04;;;;;;;6.62;2.70;;;;;;;9.88;100.00;100531.62;1716925;81;21509;-44
2022/09/06 06:12:30;;;;;;;10.50;3.58;;;;;;;9.93;100.00;100526.57;1713700;82;21119;-44
2022/09/06 06:14:57;;;;;;;7.42;3.52;;;;;;;9.99;100.00;100529.05;1715457;81;21095;-45
2022/09/06 06:17:24;;;;;;;4.78;2.72;;;;;;;10.07;100.00;100526.52;1713022;81;21045;-45
2022/09/06 06:19:52;;;;;;;10.93;3.25;;;;;;;10.17;100.00;100521.70;1711000;81;21063;-45
2022/09/06 06:22:18;;;;;;;4.60;1.95;;;;;;;10.26;100.00;100524.11;1710147;81;21595;-46
2022/09/06 06:24:45;;;;;;;5.35;1.40;;;;;;;10.33;100.00;100524.30;1688188;82;21085;-45
2022/09/06 06:27:11;;;;;;;4.60;1.92;;;;;;;10.39;100.00;100522.73;1677886;83;21050;-46
2022/09/06 06:29:37;;;;;;;3.37;1.15;;;;;;;10.45;100.00;100523.89;1680607;83;21113;-47
2022/09/06 06:32:04;;;;;;;1.92;0.70;;;;;;;10.53;100.00;100526.30;1679206;83;21062;-46
2022/09/06 06:34:30;;;;;;;1.77;0.70;;;;;;;10.63;100.00;100526.39;1687532;83;22747;-45
2022/09/06 06:37:48;;;;;;;1.40;0.70;;;;;;;10.80;100.00;100521.73;1864263;74;22548;-45
2022/09/06 06:40:14;;;;;;;1.92;0.82;;;;;;;10.84;100.00;100521.55;1842643;75;21044;-45
2022/09/06 06:42:41;;;;;;;1.50;0.80;;;;;;;10.94;100.00;100526.13;1847325;75;21153;-45
2022/09/06 06:45:08;;;;;;;1.87;1.00;;;;;;;11.01;100.00;100529.00;1805556;77;21085;-46
2022/09/06 06:47:34;;;;;;;6.80;1.42;;;;;;;11.08;100.00;100532.33;1810088;77;20977;-45
2022/09/06 06:50:01;;;;;;;2.37;1.10;;;;;;;11.14;100.00;100523.56;1782964;78;21035;-46
2022/09/06 06:52:28;;;;;;;3.08;1.30;;;;;;;11.22;100.00;100528.66;1784204;78;21729;-46
2022/09/06 06:54:54;;;;;;;1.72;0.78;;;;;;;11.29;100.00;100528.83;1791735;78;21380;-45
2022/09/06 06:57:21;;;;;;;2.08;0.80;;;;;;;11.37;100.00;100530.75;1784516;78;21156;-46
2022/09/06 06:59:49;;;;;;;1.40;0.80;;;;;;;11.48;100.00;100529.88;1795569;77;21064;-46
2022/09/06 07:02:16;;;;;;;1.20;0.55;;;;;;;11.58;100.00;100532.58;1787137;77;21075;-46
2022/09/06 07:04:42;;;;;;;1.25;0.60;;;;;;;11.67;100.00;100540.77;1772412;79;21616;-46
2022/09/06 07:07:09;;;;;;;1.67;0.70;;;;;;;11.68;100.00;100533.98;1779249;78;21225;-46
2022/09/06 07:09:36;;;;;;;3.47;0.65;;;;;;;11.67;100.00;100537.61;1780776;78;21104;-45
2022/09/06 07:12:02;;;;;;;2.85;0.70;;;;;;;11.65;100.00;100531.39;1775930;78;21376;-45
2022/09/06 07:14:29;;;;;;;1.15;0.62;;;;;;;11.67;100.00;100528.64;1771208;78;21064;-46
2022/09/06 07:16:58;;;;;;;1.12;0.50;;;;;;;11.70;100.00;100536.62;1768441;79;21061;-46
2022/09/06 07:19:23;;;;;;;0.78;0.50;;;;;;;11.73;100.00;100533.81;1761039;80;21527;-45
2022/09/06 07:21:50;;;;;;;2.08;0.30;;;;;;;11.76;100.00;100532.34;1766293;79;21386;-46
2022/09/06 07:24:17;;;;;;;6.65;0.35;;;;;;;11.80;100.00;100537.16;1767665;79;21037;-46
2022/09/06 07:26:43;;;;;;;0.50;0.30;;;;;;;11.79;100.00;100532.23;1788105;77;21522;-45
2022/09/06 07:29:10;;;;;;;0.95;0.28;;;;;;;11.79;100.00;100530.89;1798470;77;21434;-45
2022/09/06 07:31:37;;;;;;;0.30;0.20;;;;;;;11.83;100.00;100533.84;1758001;79;21124;-47
2022/09/06 07:34:04;;;;;;;1.95;0.15;;;;;;;11.88;100.00;100537.72;1794666;78;21065;-47
2022/09/06 07:36:31;;;;;;;0.40;0.10;;;;;;;11.88;100.00;100529.16;1765066;79;21282;-47
2022/09/06 07:38:58;;;;;;;0.72;0.13;;;;;;;11.92;100.00;100528.55;1761742;79;21101;-46
2022/09/06 07:41:24;;;;;;;0.20;0.10;;;;;;;11.98;100.00;100533.71;1763744;79;21168;-46
2022/09/06 07:43:54;;;;;;;0.10;0.10;;;;;;;12.00;100.00;100538.08;1759524;79;20958;-47
2022/09/06 07:46:20;;;;;;;4.20;0.20;;;;;;;12.04;100.00;100532.98;1776986;78;21026;-46
2022/09/06 07:48:48;;;;;;;0.15;0.00;;;;;;;12.02;100.00;100537.55;1777581;78;21045;-46
2022/09/06 07:51:19;;;;;;;0.05;0.00;;;;;;;12.04;100.00;100539.72;1772521;78;21544;-45
2022/09/06 07:53:51;;;;;;;0.10;0.10;;;;;;;12.06;100.00;100545.06;1779874;78;21029;-45
2022/09/06 07:56:19;;;;;;;0.75;0.13;;;;;;;12.07;100.00;100534.68;1796592;77;21440;-46
2022/09/06 07:58:45;;;;;;;0.47;0.10;;;;;;;12.11;100.00;100536.29;1790912;78;21030;-46
2022/09/06 08:01:29;;;;;;;0.00;0.00;;;;;;;12.13;100.00;100531.24;1758536;79;21176;-45
2022/09/06 08:03:57;;;;;;;0.88;0.10;;;;;;;12.16;100.00;100532.95;1776628;78;21024;-46
2022/09/06 08:06:25;;;;;;;0.10;0.10;;;;;;;12.17;100.00;100529.27;1780448;78;21029;-46
2022/09/06 08:08:51;;;;;;;0.17;0.10;;;;;;;12.19;100.00;100532.80;1772911;78;21088;-46
2022/09/06 08:11:19;;;;;;;0.68;0.10;;;;;;;12.21;100.00;100532.27;1783968;78;20933;-46
2022/09/06 08:13:51;;;;;;;0.30;0.10;;;;;;;12.22;100.00;100536.72;1778586;79;20934;-45
2022/09/06 08:16:19;;;;;;;0.10;0.10;;;;;;;12.26;100.00;100525.30;1775829;78;21101;-47
2022/09/06 08:18:51;;;;;;;0.10;0.10;;;;;;;12.31;100.00;100531.41;1775979;78;21133;-45
2022/09/06 08:21:18;;;;;;;0.15;0.10;;;;;;;12.35;100.00;100524.44;1775089;78;22246;-46
2022/09/06 08:23:47;;;;;;;0.37;0.00;;;;;;;12.44;100.00;100521.81;1777087;78;21556;-47
2022/09/06 08:26:19;;;;;;;0.10;0.00;;;;;;;12.54;100.00;100522.29;1773950;78;21498;-46
2022/09/06 08:28:46;;;;;;;1.47;0.10;;;;;;;12.61;100.00;100517.02;1778203;78;21025;-45
2022/09/06 08:31:16;;;;;;;0.20;0.10;;;;;;;12.70;100.00;100505.80;1794595;77;20915;-46
2022/09/06 08:33:43;;;;;;;0.10;0.10;;;;;;;12.76;100.00;100510.45;1758409;79;21089;-46
2022/09/06 08:36:09;;;;;;;0.20;0.10;;;;;;;12.79;100.00;100508.97;1763463;79;21425;-47
2022/09/06 08:38:36;;;;;;;0.00;0.00;;;;;;;12.81;100.00;100507.56;1790998;77;21478;-46
2022/09/06 08:41:28;;;;;;;0.20;0.08;;;;;;;12.82;100.00;100504.80;1791831;77;21028;-46
2022/09/06 08:44:00;;;;;;;0.30;0.20;;;;;;;12.83;100.00;100506.55;1791729;77;20940;-44
2022/09/06 08:46:32;;;;;;;1.52;0.20;;;;;;;12.86;100.00;100505.52;1799971;77;21501;-46
2022/09/06 08:48:58;;;;;;;0.47;0.20;;;;;;;12.87;100.00;100501.39;1787170;77;20862;-45
2022/09/06 08:52:19;;;;;;;0.30;0.20;;;;;;;12.85;100.00;100501.93;1790202;77;20944;-47
2022/09/06 08:55:17;;;;;;;0.82;0.30;;;;;;;12.72;100.00;100498.05;1789715;77;21091;-46
2022/09/06 08:57:50;;;;;;;0.40;0.20;;;;;;;12.72;100.00;100498.05;1769791;79;21068;-45
2022/09/06 09:00:16;;;;;;;0.30;0.20;;;;;;;12.68;100.00;100491.02;1764582;79;21157;-46
2022/09/06 09:02:50;;;;;;;0.55;0.40;;;;;;;12.67;100.00;100490.64;1780870;78;21556;-46
2022/09/06 09:05:37;;;;;;;0.47;0.20;;;;;;;12.70;100.00;100486.42;1781334;78;20970;-46
2022/09/06 09:08:30;;;;;;;2.55;0.20;;;;;;;12.79;100.00;100471.16;1770378;79;21050;-46
2022/09/06 09:11:05;;;;;;;1.17;0.30;;;;;;;12.92;100.00;100471.95;1790336;77;21100;-45
2022/09/06 09:14:01;;;;;;;0.42;0.30;;;;;;;13.09;100.00;100465.28;1790050;77;21107;-46
2022/09/06 09:16:27;;;;;;;;;;;;;;;13.17;100.00;100466.70;1774447;78;21031;-46
2022/09/06 09:19:00;;;;;;;0.30;0.30;;;;;;;13.32;100.00;100469.14;1777233;80;20253;-46
2022/09/06 09:21:30;;;;;;;0.40;0.30;;;;;;;13.43;100.00;100460.05;1782222;78;21050;-46
2022/09/06 09:24:00;;;;;;;0.47;0.30;;;;;;;13.49;100.00;100458.86;1779183;78;21057;-45
2022/09/06 09:26:29;;;;;;;0.50;0.40;;;;;;;13.55;100.00;100461.25;1776100;78;21581;-46
2022/09/06 09:29:11;;;;;;;0.50;0.35;;;;;;;13.57;100.00;100456.66;1760630;79;21532;-45
2022/09/06 09:31:41;;;;;;;0.53;0.40;;;;;;;13.57;100.00;100453.95;1787029;77;21026;-46
2022/09/06 09:34:33;;;;;;;2.55;0.40;;;;;;;13.56;100.00;100463.02;1761384;79;21179;-46
2022/09/06 09:37:20;;;;;;;0.85;0.40;;;;;;;13.56;100.00;100461.19;1776612;78;21057;-46
2022/09/06 09:39:48;;;;;;;0.60;0.40;;;;;;;13.53;100.00;100465.38;1769232;78;21122;-47
2022/09/06 09:42:29;;;;;;;0.50;0.30;;;;;;;13.49;100.00;100457.51;1780105;78;21166;-47
2022/09/06 09:44:56;;;;;;;0.40;0.35;;;;;;;13.49;100.00;100457.51;1777741;78;21119;-46
2022/09/06 09:47:30;;;;;;;0.40;0.40;;;;;;;13.51;100.00;100458.31;1765393;79;21075;-46
2022/09/06 09:49:56;;;;;;;0.70;0.40;;;;;;;13.51;100.00;100458.31;1800758;77;21346;-46
2022/09/06 09:52:26;;;;;;;0.40;0.30;;;;;;;13.48;100.00;100461.16;1801850;77;21212;-45
2022/09/06 09:54:55;;;;;;;1.52;0.50;;;;;;;13.46;100.00;100461.23;1789537;77;21151;-46
2022/09/06 09:57:22;;;;;;;0.60;0.33;;;;;;;13.48;100.00;100452.58;1793756;77;21039;-45
2022/09/06 09:59:59;;;;;;;0.50;0.30;;;;;;;13.48;100.00;100459.33;1783836;77;21024;-46
2022/09/06 10:02:34;;;;;;;0.50;0.37;;;;;;;13.48;100.00;100459.33;1786879;77;21579;-45
2022/09/06 10:05:08;;;;;;;0.53;0.30;;;;;;;13.46;100.00;100461.70;1786779;77;21146;-46
2022/09/06 10:07:44;;;;;;;1.32;0.50;;;;;;;13.46;100.00;100461.70;1788013;77;20974;-46
2022/09/06 10:10:20;;;;;;;0.98;0.40;;;;;;;13.35;100.00;100458.19;1786398;77;21070;-46
2022/09/06 10:12:47;;;;;;;0.88;0.50;;;;;;;13.34;100.00;100463.20;1767610;77;21097;-46
2022/09/06 10:15:36;;;;;;;7.12;0.70;;;;;;;13.31;100.00;100456.57;1789368;77;21016;-46
2022/09/06 10:18:03;;;;;;;0.95;0.57;;;;;;;13.31;100.00;100456.57;1786616;77;22762;-46
2022/09/06 10:20:41;;;;;;;0.82;0.50;;;;;;;13.32;100.00;100461.03;1796870;77;21407;-47
2022/09/06 10:23:13;;;;;;;0.70;0.50;;;;;;;13.33;100.00;100453.33;1792774;77;21056;-45
2022/09/06 10:25:56;;;;;;;0.70;0.68;;;;;;;13.40;100.00;100448.48;1788753;77;20964;-45
2022/09/06 10:28:28;;;;;;;1.45;0.60;;;;;;;13.40;100.00;100448.48;1791925;77;20933;-44
2022/09/06 10:31:03;;;;;;;1.27;0.70;;;;;;;13.45;100.00;100451.36;1789721;77;21098;-43
2022/09/06 10:34:05;;;;;;;1.20;0.80;;;;;;;13.51;100.00;100455.14;1791471;77;21076;-46
2022/09/06 10:36:38;;;;;;;4.17;1.02;;;;;;;13.62;100.00;100441.94;1796748;77;21061;-45
2022/09/06 10:39:24;;;;;;;2.70;1.67;;;;;;;13.62;100.00;100441.94;1747825;79;21029;-44
2022/09/06 10:42:05;;;;;;;3.33;1.57;;;;;;;13.65;100.00;100443.63;1748101;80;21535;-46
2022/09/06 10:44:55;;;;;;;2.92;1.72;;;;;;;13.63;100.00;100443.69;1712352;81;21520;-44
2022/09/06 10:47:21;;;;;;;5.90;1.95;;;;;;;13.63;100.00;100443.69;1744738;80;22521;-47
2022/09/06 10:49:53;;;;;;;3.15;1.98;;;;;;;13.72;100.00;100441.48;1747364;80;21114;-45
2022/09/06 10:52:35;;;;;;;3.20;2.05;;;;;;;13.78;100.00;100449.31;1726034;81;22638;-44
2022/09/06 10:55:04;;;;;;;2.95;2.50;;;;;;;13.82;100.00;100449.06;1728270;80;21054;-45
2022/09/06 10:57:41;;;;;;;3.47;2.55;;;;;;;13.86;100.00;100444.39;1711378;82;21105;-44
2022/09/06 11:00:12;;;;;;;9.70;6.35;;;;;;;13.94;100.00;100438.11;1721838;82;21082;-43
2022/09/06 11:02:55;;;;;;;10.68;7.17;;;;;;;13.94;100.00;100438.11;1734411;81;21530;-46
2022/09/06 11:05:26;;;;;;;13.75;8.23;;;;;;;14.00;100.00;100445.90;1746512;80;20966;-43
2022/09/06 11:08:00;;;;;;;14.07;11.15;;;;;;;14.03;100.00;100444.88;1747880;80;20970;-44
2022/09/06 11:10:33;;;;;;;26.27;13.30;;;;;;;14.03;100.00;100453.87;1738465;80;21175;-43
2022/09/06 11:13:13;;;;;;;25.65;14.35;;;;;;;14.00;100.00;100436.42;1747746;80;20938;-45
2022/09/06 11:16:03;;;;;;;22.55;14.20;;;;;;;13.96;100.00;100439.76;1753213;80;21386;-45
2022/09/06 11:19:04;;;;;;;36.17;21.82;;;;;;;13.94;100.00;100447.10;1746585;80;21919;-46
2022/09/06 11:21:44;;;;;;;38.38;23.18;;;;;;;13.93;100.00;100440.41;1720460;81;20949;-45
2022/09/06 11:24:42;;;;;;;44.20;27.77;;;;;;;13.92;100.00;100444.95;1717323;81;21052;-44
2022/09/06 11:27:22;;;;;;;57.78;35.30;;;;;;;13.87;100.00;100444.75;1726833;81;20941;-43
2022/09/06 11:29:55;;;;;;;55.48;37.23;;;;;;;13.82;100.00;100459.02;1716077;81;21027;-42
2022/09/06 11:32:44;;;;;;;61.53;39.53;;;;;;;13.73;100.00;100447.30;1750394;79;21041;-44
2022/09/06 11:35:28;;;;;;;61.10;39.18;;;;;;;13.61;100.00;100441.53;1746181;80;21092;-47
2022/09/06 11:38:18;;;;;;;68.65;44.10;;;;;;;13.61;100.00;100441.53;1726702;80;21160;-47
2022/09/06 11:40:49;;;;;;;68.85;47.62;;;;;;;13.63;100.00;100447.75;1749540;80;20971;-47